sensor_id;sensor_type;location;lat;lon;timestamp;temperature;humidity
13980;DHT22;73871;49.900;8.594;2023-12-22T00:01:26;6.10;99.90
13980;DHT22;73871;49.900;8.594;2023-12-22T00:03:53;6.10;99.90
13980;DHT22;73871;49.900;8.594;2023-12-22T00:06:20;6.10;99.90
13980;DHT22;73871;49.900;8.594;2023-12-22T00:08:47;6.10;99.90
13980;DHT22;73871;49.900;8.594;2023-12-22T00:11:13;6.10;99.90
13980;DHT22;73871;49.900;8.594;2023-12-22T00:13:40;6.10;99.90
13980;DHT22;73871;49.900;8.594;2023-12-22T00:16:07;6.10;99.90
13980;DHT22;73871;49.900;8.594;2023-12-22T00:18:33;6.00;99.90
13980;DHT22;73871;49.900;8.594;2023-12-22T00:21:00;6.00;99.90
13980;DHT22;73871;49.900;8.594;2023-12-22T00:23:27;6.00;99.90
13980;DHT22;73871;49.900;8.594;2023-12-22T00:25:54;5.90;99.90
13980;DHT22;73871;49.900;8.594;2023-12-22T00:28:21;5.80;99.90
13980;DHT22;73871;49.900;8.594;2023-12-22T00:30:47;5.80;99.90
13980;DHT22;73871;49.900;8.594;2023-12-22T00:33:14;5.80;99.90
13980;DHT22;73871;49.900;8.594;2023-12-22T00:35:41;5.70;99.90
13980;DHT22;73871;49.900;8.594;2023-12-22T00:38:07;5.60;99.90
13980;DHT22;73871;49.900;8.594;2023-12-22T00:40:35;5.60;99.90
13980;DHT22;73871;49.900;8.594;2023-12-22T00:43:01;5.50;99.90
13980;DHT22;73871;49.900;8.594;2023-12-22T00:45:28;5.50;99.90
13980;DHT22;73871;49.900;8.594;2023-12-22T00:47:55;5.50;99.90
13980;DHT22;73871;49.900;8.594;2023-12-22T00:50:21;5.50;99.90
13980;DHT22;73871;49.900;8.594;2023-12-22T00:52:48;5.60;99.90
13980;DHT22;73871;49.900;8.594;2023-12-22T00:55:15;5.60;99.90
13980;DHT22;73871;49.900;8.594;2023-12-22T00:57:42;5.70;99.90
13980;DHT22;73871;49.900;8.594;2023-12-22T01:00:09;5.70;99.90
13980;DHT22;73871;49.900;8.594;2023-12-22T01:02:38;5.70;99.90
13980;DHT22;73871;49.900;8.594;2023-12-22T01:05:05;5.80;99.90
13980;DHT22;73871;49.900;8.594;2023-12-22T01:07:32;5.90;99.90
13980;DHT22;73871;49.900;8.594;2023-12-22T01:09:59;6.00;99.90
13980;DHT22;73871;49.900;8.594;2023-12-22T01:12:28;6.10;99.90
13980;DHT22;73871;49.900;8.594;2023-12-22T01:14:56;6.20;99.90
13980;DHT22;73871;49.900;8.594;2023-12-22T01:17:22;6.20;99.90
13980;DHT22;73871;49.900;8.594;2023-12-22T01:19:49;6.10;99.90
13980;DHT22;73871;49.900;8.594;2023-12-22T01:22:18;6.20;99.90
13980;DHT22;73871;49.900;8.594;2023-12-22T01:24:44;6.20;99.90
13980;DHT22;73871;49.900;8.594;2023-12-22T01:27:12;6.20;99.90
13980;DHT22;73871;49.900;8.594;2023-12-22T01:29:38;6.30;99.90
13980;DHT22;73871;49.900;8.594;2023-12-22T01:32:05;6.30;99.90
13980;DHT22;73871;49.900;8.594;2023-12-22T01:34:32;6.30;99.90
13980;DHT22;73871;49.900;8.594;2023-12-22T01:36:59;6.40;99.90
13980;DHT22;73871;49.900;8.594;2023-12-22T01:39:26;6.40;99.90
13980;DHT22;73871;49.900;8.594;2023-12-22T01:41:52;6.40;99.90
13980;DHT22;73871;49.900;8.594;2023-12-22T01:44:19;6.50;99.90
13980;DHT22;73871;49.900;8.594;2023-12-22T01:46:46;6.50;99.90
13980;DHT22;73871;49.900;8.594;2023-12-22T01:49:14;6.50;99.90
13980;DHT22;73871;49.900;8.594;2023-12-22T01:51:42;6.50;99.90
13980;DHT22;73871;49.900;8.594;2023-12-22T01:54:09;6.50;99.90
13980;DHT22;73871;49.900;8.594;2023-12-22T01:56:37;6.50;99.90
13980;DHT22;73871;49.900;8.594;2023-12-22T01:59:04;6.40;99.90
13980;DHT22;73871;49.900;8.594;2023-12-22T02:01:31;6.40;99.90
13980;DHT22;73871;49.900;8.594;2023-12-22T02:03:59;6.40;99.90
13980;DHT22;73871;49.900;8.594;2023-12-22T02:06:26;6.30;99.90
13980;DHT22;73871;49.900;8.594;2023-12-22T02:08:54;6.30;99.90
13980;DHT22;73871;49.900;8.594;2023-12-22T02:11:20;6.30;99.90
13980;DHT22;73871;49.900;8.594;2023-12-22T02:13:47;6.20;99.90
13980;DHT22;73871;49.900;8.594;2023-12-22T02:18:51;6.30;99.90
13980;DHT22;73871;49.900;8.594;2023-12-22T02:21:21;6.20;99.90
13980;DHT22;73871;49.900;8.594;2023-12-22T02:23:48;6.30;99.90
13980;DHT22;73871;49.900;8.594;2023-12-22T02:26:39;6.20;99.90
13980;DHT22;73871;49.900;8.594;2023-12-22T02:29:12;6.30;99.90
13980;DHT22;73871;49.900;8.594;2023-12-22T02:31:42;6.30;99.90
13980;DHT22;73871;49.900;8.594;2023-12-22T02:34:18;6.30;99.90
13980;DHT22;73871;49.900;8.594;2023-12-22T02:36:46;6.30;99.90
13980;DHT22;73871;49.900;8.594;2023-12-22T02:39:14;6.40;99.90
13980;DHT22;73871;49.900;8.594;2023-12-22T02:41:43;6.40;99.90
13980;DHT22;73871;49.900;8.594;2023-12-22T02:44:10;6.40;99.90
13980;DHT22;73871;49.900;8.594;2023-12-22T02:46:37;6.50;99.90
13980;DHT22;73871;49.900;8.594;2023-12-22T02:49:04;6.50;99.90
13980;DHT22;73871;49.900;8.594;2023-12-22T02:51:30;6.50;99.90
13980;DHT22;73871;49.900;8.594;2023-12-22T02:53:57;6.50;99.90
13980;DHT22;73871;49.900;8.594;2023-12-22T02:56:24;6.50;99.90
13980;DHT22;73871;49.900;8.594;2023-12-22T02:58:51;6.50;99.90
13980;DHT22;73871;49.900;8.594;2023-12-22T03:01:18;6.50;99.90
13980;DHT22;73871;49.900;8.594;2023-12-22T03:03:44;6.50;99.90
13980;DHT22;73871;49.900;8.594;2023-12-22T03:06:11;6.50;99.90
13980;DHT22;73871;49.900;8.594;2023-12-22T03:08:38;6.60;99.90
13980;DHT22;73871;49.900;8.594;2023-12-22T03:11:05;6.60;99.90
13980;DHT22;73871;49.900;8.594;2023-12-22T03:13:31;6.60;99.90
13980;DHT22;73871;49.900;8.594;2023-12-22T03:15:58;6.60;99.90
13980;DHT22;73871;49.900;8.594;2023-12-22T03:18:25;6.60;99.90
13980;DHT22;73871;49.900;8.594;2023-12-22T03:20:52;6.60;99.90
13980;DHT22;73871;49.900;8.594;2023-12-22T03:23:18;6.70;99.90
13980;DHT22;73871;49.900;8.594;2023-12-22T03:25:45;6.70;99.90
13980;DHT22;73871;49.900;8.594;2023-12-22T03:28:12;6.70;99.90
13980;DHT22;73871;49.900;8.594;2023-12-22T03:30:39;6.60;99.90
13980;DHT22;73871;49.900;8.594;2023-12-22T03:33:05;6.60;99.90
13980;DHT22;73871;49.900;8.594;2023-12-22T03:35:33;6.60;99.90
13980;DHT22;73871;49.900;8.594;2023-12-22T03:38:00;6.60;99.90
13980;DHT22;73871;49.900;8.594;2023-12-22T03:40:27;6.50;99.90
13980;DHT22;73871;49.900;8.594;2023-12-22T03:42:54;6.40;99.90
13980;DHT22;73871;49.900;8.594;2023-12-22T03:45:20;6.40;99.90
13980;DHT22;73871;49.900;8.594;2023-12-22T03:47:47;6.40;99.90
13980;DHT22;73871;49.900;8.594;2023-12-22T03:50:14;6.40;99.90
13980;DHT22;73871;49.900;8.594;2023-12-22T03:52:41;6.40;99.90
13980;DHT22;73871;49.900;8.594;2023-12-22T03:55:08;6.50;99.90
13980;DHT22;73871;49.900;8.594;2023-12-22T03:57:34;6.50;99.90
13980;DHT22;73871;49.900;8.594;2023-12-22T04:00:01;6.50;99.90
13980;DHT22;73871;49.900;8.594;2023-12-22T04:02:29;6.50;99.90
13980;DHT22;73871;49.900;8.594;2023-12-22T04:04:56;6.60;99.90
13980;DHT22;73871;49.900;8.594;2023-12-22T04:07:23;6.60;99.90
13980;DHT22;73871;49.900;8.594;2023-12-22T04:09:49;6.50;99.90
13980;DHT22;73871;49.900;8.594;2023-12-22T04:12:16;6.40;99.90
13980;DHT22;73871;49.900;8.594;2023-12-22T04:14:43;6.40;99.90
13980;DHT22;73871;49.900;8.594;2023-12-22T04:17:10;6.40;99.90
13980;DHT22;73871;49.900;8.594;2023-12-22T04:19:37;6.40;99.90
13980;DHT22;73871;49.900;8.594;2023-12-22T04:22:04;6.40;99.90
13980;DHT22;73871;49.900;8.594;2023-12-22T04:24:30;6.40;99.90
13980;DHT22;73871;49.900;8.594;2023-12-22T04:26:57;6.50;99.90
13980;DHT22;73871;49.900;8.594;2023-12-22T04:29:24;6.40;99.90
13980;DHT22;73871;49.900;8.594;2023-12-22T04:31:51;6.50;99.90
13980;DHT22;73871;49.900;8.594;2023-12-22T04:34:18;6.50;99.90
13980;DHT22;73871;49.900;8.594;2023-12-22T04:36:45;6.50;99.90
13980;DHT22;73871;49.900;8.594;2023-12-22T04:39:13;6.60;99.90
13980;DHT22;73871;49.900;8.594;2023-12-22T04:41:40;6.60;99.90
13980;DHT22;73871;49.900;8.594;2023-12-22T04:44:06;6.60;99.90
13980;DHT22;73871;49.900;8.594;2023-12-22T04:46:33;6.60;99.90
13980;DHT22;73871;49.900;8.594;2023-12-22T04:49:00;6.70;99.90
13980;DHT22;73871;49.900;8.594;2023-12-22T04:51:28;6.80;99.90
13980;DHT22;73871;49.900;8.594;2023-12-22T04:53:55;6.80;99.90
13980;DHT22;73871;49.900;8.594;2023-12-22T04:56:22;6.80;99.90
13980;DHT22;73871;49.900;8.594;2023-12-22T04:58:48;6.80;99.90
13980;DHT22;73871;49.900;8.594;2023-12-22T05:01:15;6.80;99.90
13980;DHT22;73871;49.900;8.594;2023-12-22T05:03:42;6.80;99.90
13980;DHT22;73871;49.900;8.594;2023-12-22T05:06:09;6.80;99.90
13980;DHT22;73871;49.900;8.594;2023-12-22T05:08:36;6.80;99.90
13980;DHT22;73871;49.900;8.594;2023-12-22T05:11:03;6.80;99.90
13980;DHT22;73871;49.900;8.594;2023-12-22T05:13:29;6.80;99.90
13980;DHT22;73871;49.900;8.594;2023-12-22T05:15:56;6.80;99.90
13980;DHT22;73871;49.900;8.594;2023-12-22T05:18:24;6.80;99.90
13980;DHT22;73871;49.900;8.594;2023-12-22T05:20:51;6.80;99.90
13980;DHT22;73871;49.900;8.594;2023-12-22T05:23:19;6.90;99.90
13980;DHT22;73871;49.900;8.594;2023-12-22T05:25:46;6.80;99.90
13980;DHT22;73871;49.900;8.594;2023-12-22T05:28:12;6.90;99.90
13980;DHT22;73871;49.900;8.594;2023-12-22T05:30:39;6.80;99.90
13980;DHT22;73871;49.900;8.594;2023-12-22T05:33:06;6.80;99.90
13980;DHT22;73871;49.900;8.594;2023-12-22T05:35:33;6.80;99.90
13980;DHT22;73871;49.900;8.594;2023-12-22T05:38:01;6.70;99.90
13980;DHT22;73871;49.900;8.594;2023-12-22T05:40:28;6.70;99.90
13980;DHT22;73871;49.900;8.594;2023-12-22T05:42:55;6.70;99.90
13980;DHT22;73871;49.900;8.594;2023-12-22T05:45:22;6.60;99.90
13980;DHT22;73871;49.900;8.594;2023-12-22T05:47:49;6.60;99.90
13980;DHT22;73871;49.900;8.594;2023-12-22T05:50:16;6.60;99.90
13980;DHT22;73871;49.900;8.594;2023-12-22T05:52:43;6.60;99.90
13980;DHT22;73871;49.900;8.594;2023-12-22T05:55:11;6.60;99.90
13980;DHT22;73871;49.900;8.594;2023-12-22T05:57:38;6.60;99.90
13980;DHT22;73871;49.900;8.594;2023-12-22T06:00:05;6.70;99.90
13980;DHT22;73871;49.900;8.594;2023-12-22T06:02:34;6.90;99.90
13980;DHT22;73871;49.900;8.594;2023-12-22T06:05:00;6.90;99.90
13980;DHT22;73871;49.900;8.594;2023-12-22T06:07:28;6.90;99.90
13980;DHT22;73871;49.900;8.594;2023-12-22T06:09:54;7.00;99.90
13980;DHT22;73871;49.900;8.594;2023-12-22T06:12:21;7.00;99.90
13980;DHT22;73871;49.900;8.594;2023-12-22T06:14:48;7.00;99.90
13980;DHT22;73871;49.900;8.594;2023-12-22T06:17:14;7.10;99.90
13980;DHT22;73871;49.900;8.594;2023-12-22T06:19:41;7.10;99.90
13980;DHT22;73871;49.900;8.594;2023-12-22T06:22:08;7.10;99.90
13980;DHT22;73871;49.900;8.594;2023-12-22T06:24:35;7.10;99.90
13980;DHT22;73871;49.900;8.594;2023-12-22T06:27:02;7.10;99.90
13980;DHT22;73871;49.900;8.594;2023-12-22T06:29:29;7.10;99.90
13980;DHT22;73871;49.900;8.594;2023-12-22T06:31:57;7.10;99.90
13980;DHT22;73871;49.900;8.594;2023-12-22T06:34:24;7.00;99.90
13980;DHT22;73871;49.900;8.594;2023-12-22T06:36:52;7.00;99.90
13980;DHT22;73871;49.900;8.594;2023-12-22T06:39:19;7.00;99.90
13980;DHT22;73871;49.900;8.594;2023-12-22T06:41:46;7.10;99.90
13980;DHT22;73871;49.900;8.594;2023-12-22T06:44:13;7.00;99.90
13980;DHT22;73871;49.900;8.594;2023-12-22T06:46:39;7.00;99.90
13980;DHT22;73871;49.900;8.594;2023-12-22T06:49:06;7.00;99.90
13980;DHT22;73871;49.900;8.594;2023-12-22T06:51:33;6.80;99.90
13980;DHT22;73871;49.900;8.594;2023-12-22T06:54:03;6.70;99.90
13980;DHT22;73871;49.900;8.594;2023-12-22T06:56:32;6.70;99.90
13980;DHT22;73871;49.900;8.594;2023-12-22T06:59:00;6.60;99.90
13980;DHT22;73871;49.900;8.594;2023-12-22T07:01:29;6.50;99.90
13980;DHT22;73871;49.900;8.594;2023-12-22T07:03:56;6.50;99.90
13980;DHT22;73871;49.900;8.594;2023-12-22T07:06:24;6.50;99.90
13980;DHT22;73871;49.900;8.594;2023-12-22T07:11:51;6.50;99.90
13980;DHT22;73871;49.900;8.594;2023-12-22T07:14:19;6.60;99.90
13980;DHT22;73871;49.900;8.594;2023-12-22T07:16:45;6.60;99.90
13980;DHT22;73871;49.900;8.594;2023-12-22T07:19:12;6.70;99.90
13980;DHT22;73871;49.900;8.594;2023-12-22T07:21:40;6.80;99.90
13980;DHT22;73871;49.900;8.594;2023-12-22T07:24:10;6.80;99.90
13980;DHT22;73871;49.900;8.594;2023-12-22T07:26:37;6.90;99.90
13980;DHT22;73871;49.900;8.594;2023-12-22T07:29:04;7.00;99.90
13980;DHT22;73871;49.900;8.594;2023-12-22T07:31:31;7.10;99.90
13980;DHT22;73871;49.900;8.594;2023-12-22T07:33:58;7.10;99.90
13980;DHT22;73871;49.900;8.594;2023-12-22T07:36:24;7.20;99.90
13980;DHT22;73871;49.900;8.594;2023-12-22T07:38:51;7.20;99.90
13980;DHT22;73871;49.900;8.594;2023-12-22T07:41:18;7.30;99.90
13980;DHT22;73871;49.900;8.594;2023-12-22T07:43:46;7.30;99.90
13980;DHT22;73871;49.900;8.594;2023-12-22T07:46:17;7.30;99.90
13980;DHT22;73871;49.900;8.594;2023-12-22T07:48:45;7.40;99.90
13980;DHT22;73871;49.900;8.594;2023-12-22T07:51:12;7.30;99.90
13980;DHT22;73871;49.900;8.594;2023-12-22T07:53:38;7.30;99.90
13980;DHT22;73871;49.900;8.594;2023-12-22T07:56:06;7.30;99.90
13980;DHT22;73871;49.900;8.594;2023-12-22T07:58:34;7.30;99.90
13980;DHT22;73871;49.900;8.594;2023-12-22T08:01:01;7.30;99.90
13980;DHT22;73871;49.900;8.594;2023-12-22T08:03:28;7.40;99.90
13980;DHT22;73871;49.900;8.594;2023-12-22T08:05:55;7.50;99.90
13980;DHT22;73871;49.900;8.594;2023-12-22T08:08:22;7.60;99.90
13980;DHT22;73871;49.900;8.594;2023-12-22T08:10:49;7.70;99.90
13980;DHT22;73871;49.900;8.594;2023-12-22T08:13:16;7.70;99.90
13980;DHT22;73871;49.900;8.594;2023-12-22T08:15:44;7.80;99.90
13980;DHT22;73871;49.900;8.594;2023-12-22T08:18:11;7.90;99.90
13980;DHT22;73871;49.900;8.594;2023-12-22T08:20:38;7.90;99.90
13980;DHT22;73871;49.900;8.594;2023-12-22T08:23:09;7.90;99.90
13980;DHT22;73871;49.900;8.594;2023-12-22T08:25:38;7.90;99.90
13980;DHT22;73871;49.900;8.594;2023-12-22T08:28:08;7.90;99.90
13980;DHT22;73871;49.900;8.594;2023-12-22T08:30:34;8.00;99.90
13980;DHT22;73871;49.900;8.594;2023-12-22T08:33:02;8.00;99.90
13980;DHT22;73871;49.900;8.594;2023-12-22T08:35:29;8.00;99.90
13980;DHT22;73871;49.900;8.594;2023-12-22T08:37:55;7.90;99.90
13980;DHT22;73871;49.900;8.594;2023-12-22T08:40:22;7.90;99.90
13980;DHT22;73871;49.900;8.594;2023-12-22T08:42:53;7.80;99.90
13980;DHT22;73871;49.900;8.594;2023-12-22T08:45:28;7.70;99.90
13980;DHT22;73871;49.900;8.594;2023-12-22T08:47:56;7.70;99.90
13980;DHT22;73871;49.900;8.594;2023-12-22T08:50:23;7.60;99.90
13980;DHT22;73871;49.900;8.594;2023-12-22T08:52:50;7.60;99.90
13980;DHT22;73871;49.900;8.594;2023-12-22T08:55:17;7.60;99.90
13980;DHT22;73871;49.900;8.594;2023-12-22T08:57:44;7.60;99.90
13980;DHT22;73871;49.900;8.594;2023-12-22T09:00:22;7.60;99.90
13980;DHT22;73871;49.900;8.594;2023-12-22T09:02:49;7.60;99.90
13980;DHT22;73871;49.900;8.594;2023-12-22T09:05:16;7.60;99.90
13980;DHT22;73871;49.900;8.594;2023-12-22T09:07:44;7.60;99.90
13980;DHT22;73871;49.900;8.594;2023-12-22T09:10:12;7.60;99.90
13980;DHT22;73871;49.900;8.594;2023-12-22T09:12:39;7.60;99.90
13980;DHT22;73871;49.900;8.594;2023-12-22T09:15:06;7.50;99.90
13980;DHT22;73871;49.900;8.594;2023-12-22T09:17:32;7.50;99.90
13980;DHT22;73871;49.900;8.594;2023-12-22T09:20:00;7.50;99.90
13980;DHT22;73871;49.900;8.594;2023-12-22T09:22:27;7.50;99.90
13980;DHT22;73871;49.900;8.594;2023-12-22T09:24:54;7.60;99.90
13980;DHT22;73871;49.900;8.594;2023-12-22T09:27:20;7.60;99.90
13980;DHT22;73871;49.900;8.594;2023-12-22T09:29:47;7.70;99.90
13980;DHT22;73871;49.900;8.594;2023-12-22T09:32:14;7.60;99.90
13980;DHT22;73871;49.900;8.594;2023-12-22T09:34:41;7.70;99.90
13980;DHT22;73871;49.900;8.594;2023-12-22T09:37:08;7.70;99.90
13980;DHT22;73871;49.900;8.594;2023-12-22T09:39:34;7.70;99.90
13980;DHT22;73871;49.900;8.594;2023-12-22T09:42:01;7.70;99.90
13980;DHT22;73871;49.900;8.594;2023-12-22T09:44:31;7.70;99.90
13980;DHT22;73871;49.900;8.594;2023-12-22T09:47:00;7.70;99.90
13980;DHT22;73871;49.900;8.594;2023-12-22T09:49:29;7.70;99.90
13980;DHT22;73871;49.900;8.594;2023-12-22T09:51:57;7.70;99.90
13980;DHT22;73871;49.900;8.594;2023-12-22T09:54:24;7.60;99.90
13980;DHT22;73871;49.900;8.594;2023-12-22T09:56:53;7.70;99.90
13980;DHT22;73871;49.900;8.594;2023-12-22T09:59:21;7.70;99.90
13980;DHT22;73871;49.900;8.594;2023-12-22T10:01:49;7.70;99.90
13980;DHT22;73871;49.900;8.594;2023-12-22T10:04:17;7.70;99.90
13980;DHT22;73871;49.900;8.594;2023-12-22T10:06:47;7.70;99.90
13980;DHT22;73871;49.900;8.594;2023-12-22T10:09:16;7.70;99.90
13980;DHT22;73871;49.900;8.594;2023-12-22T10:11:44;7.80;99.90
13980;DHT22;73871;49.900;8.594;2023-12-22T10:14:12;7.80;99.90
13980;DHT22;73871;49.900;8.594;2023-12-22T10:16:40;7.90;99.90
13980;DHT22;73871;49.900;8.594;2023-12-22T10:19:08;7.90;99.90
13980;DHT22;73871;49.900;8.594;2023-12-22T10:21:35;7.90;99.90
13980;DHT22;73871;49.900;8.594;2023-12-22T10:24:02;8.00;99.90
13980;DHT22;73871;49.900;8.594;2023-12-22T10:26:29;8.00;99.90
13980;DHT22;73871;49.900;8.594;2023-12-22T10:28:56;8.10;99.90
13980;DHT22;73871;49.900;8.594;2023-12-22T10:31:22;8.20;99.90
13980;DHT22;73871;49.900;8.594;2023-12-22T10:33:49;8.20;99.90
13980;DHT22;73871;49.900;8.594;2023-12-22T10:36:16;8.30;99.90
13980;DHT22;73871;49.900;8.594;2023-12-22T10:38:44;8.40;99.90
13980;DHT22;73871;49.900;8.594;2023-12-22T10:41:11;8.40;99.90
13980;DHT22;73871;49.900;8.594;2023-12-22T10:43:39;8.50;99.90
13980;DHT22;73871;49.900;8.594;2023-12-22T10:46:07;8.60;99.90
13980;DHT22;73871;49.900;8.594;2023-12-22T10:48:40;8.60;99.90
13980;DHT22;73871;49.900;8.594;2023-12-22T10:51:10;8.60;99.90
13980;DHT22;73871;49.900;8.594;2023-12-22T10:53:41;8.70;99.90
13980;DHT22;73871;49.900;8.594;2023-12-22T10:56:08;8.70;99.90
13980;DHT22;73871;49.900;8.594;2023-12-22T10:58:35;8.80;99.90
13980;DHT22;73871;49.900;8.594;2023-12-22T11:01:02;8.80;99.90
13980;DHT22;73871;49.900;8.594;2023-12-22T11:03:31;8.90;99.90
13980;DHT22;73871;49.900;8.594;2023-12-22T11:06:04;8.90;99.90
13980;DHT22;73871;49.900;8.594;2023-12-22T11:08:32;9.00;99.90
13980;DHT22;73871;49.900;8.594;2023-12-22T11:11:05;9.00;99.90
13980;DHT22;73871;49.900;8.594;2023-12-22T11:13:36;9.00;99.90
13980;DHT22;73871;49.900;8.594;2023-12-22T11:16:04;9.00;99.90
13980;DHT22;73871;49.900;8.594;2023-12-22T11:18:33;9.00;99.90
13980;DHT22;73871;49.900;8.594;2023-12-22T11:21:02;9.00;99.90
13980;DHT22;73871;49.900;8.594;2023-12-22T11:23:32;9.10;99.90
13980;DHT22;73871;49.900;8.594;2023-12-22T11:26:01;9.20;99.90
13980;DHT22;73871;49.900;8.594;2023-12-22T11:28:31;9.20;99.90
13980;DHT22;73871;49.900;8.594;2023-12-22T11:31:01;9.20;99.90
13980;DHT22;73871;49.900;8.594;2023-12-22T11:33:29;9.30;99.90
13980;DHT22;73871;49.900;8.594;2023-12-22T11:35:56;9.30;99.90
13980;DHT22;73871;49.900;8.594;2023-12-22T11:38:24;9.30;99.90
13980;DHT22;73871;49.900;8.594;2023-12-22T11:40:52;9.40;99.90
13980;DHT22;73871;49.900;8.594;2023-12-22T11:43:20;9.40;99.90
13980;DHT22;73871;49.900;8.594;2023-12-22T11:45:50;9.50;99.90
13980;DHT22;73871;49.900;8.594;2023-12-22T11:48:17;9.40;99.90
13980;DHT22;73871;49.900;8.594;2023-12-22T11:50:44;9.50;99.90
13980;DHT22;73871;49.900;8.594;2023-12-22T11:53:22;9.50;99.90
13980;DHT22;73871;49.900;8.594;2023-12-22T11:56:02;9.60;99.90
13980;DHT22;73871;49.900;8.594;2023-12-22T11:58:36;9.60;99.90
13980;DHT22;73871;49.900;8.594;2023-12-22T12:01:06;9.60;99.90
13980;DHT22;73871;49.900;8.594;2023-12-22T12:03:32;9.50;99.90
13980;DHT22;73871;49.900;8.594;2023-12-22T12:08:56;9.40;99.90
13980;DHT22;73871;49.900;8.594;2023-12-22T12:11:23;9.50;99.90
13980;DHT22;73871;49.900;8.594;2023-12-22T12:13:50;9.50;99.90
13980;DHT22;73871;49.900;8.594;2023-12-22T12:16:20;9.50;99.90
13980;DHT22;73871;49.900;8.594;2023-12-22T12:18:50;9.50;99.90
13980;DHT22;73871;49.900;8.594;2023-12-22T12:21:20;9.40;99.90
13980;DHT22;73871;49.900;8.594;2023-12-22T12:23:48;9.50;99.90
13980;DHT22;73871;49.900;8.594;2023-12-22T12:26:16;9.50;99.90
13980;DHT22;73871;49.900;8.594;2023-12-22T12:28:45;9.50;99.90
13980;DHT22;73871;49.900;8.594;2023-12-22T12:31:12;9.50;99.90
13980;DHT22;73871;49.900;8.594;2023-12-22T12:33:39;9.50;99.90
13980;DHT22;73871;49.900;8.594;2023-12-22T12:36:07;9.50;99.90
13980;DHT22;73871;49.900;8.594;2023-12-22T12:38:54;9.50;99.90
13980;DHT22;73871;49.900;8.594;2023-12-22T12:41:29;9.60;99.90
13980;DHT22;73871;49.900;8.594;2023-12-22T12:43:58;9.60;99.90
13980;DHT22;73871;49.900;8.594;2023-12-22T12:46:35;9.60;99.90
13980;DHT22;73871;49.900;8.594;2023-12-22T12:49:04;9.60;99.90
13980;DHT22;73871;49.900;8.594;2023-12-22T12:51:39;9.60;99.90
13980;DHT22;73871;49.900;8.594;2023-12-22T12:54:07;9.50;99.90
13980;DHT22;73871;49.900;8.594;2023-12-22T12:56:41;9.60;99.90
13980;DHT22;73871;49.900;8.594;2023-12-22T12:59:16;9.50;99.90
13980;DHT22;73871;49.900;8.594;2023-12-22T13:01:46;9.60;99.90
13980;DHT22;73871;49.900;8.594;2023-12-22T13:04:14;9.60;99.90
13980;DHT22;73871;49.900;8.594;2023-12-22T13:06:50;9.60;99.90
13980;DHT22;73871;49.900;8.594;2023-12-22T13:09:18;9.60;99.90
13980;DHT22;73871;49.900;8.594;2023-12-22T13:11:46;9.60;99.90
13980;DHT22;73871;49.900;8.594;2023-12-22T13:14:24;9.70;99.90
13980;DHT22;73871;49.900;8.594;2023-12-22T13:16:55;9.60;99.90
13980;DHT22;73871;49.900;8.594;2023-12-22T13:19:24;9.70;99.90
13980;DHT22;73871;49.900;8.594;2023-12-22T13:21:54;9.80;99.90
13980;DHT22;73871;49.900;8.594;2023-12-22T13:24:22;9.90;99.90
13980;DHT22;73871;49.900;8.594;2023-12-22T13:27:02;10.00;99.90
13980;DHT22;73871;49.900;8.594;2023-12-22T13:29:42;10.20;99.90
13980;DHT22;73871;49.900;8.594;2023-12-22T13:32:15;10.30;99.90
13980;DHT22;73871;49.900;8.594;2023-12-22T13:34:48;10.40;99.90
13980;DHT22;73871;49.900;8.594;2023-12-22T13:37:15;10.40;99.90
13980;DHT22;73871;49.900;8.594;2023-12-22T13:39:42;10.40;99.90
13980;DHT22;73871;49.900;8.594;2023-12-22T13:42:19;10.40;99.90
13980;DHT22;73871;49.900;8.594;2023-12-22T13:44:48;10.40;99.90
13980;DHT22;73871;49.900;8.594;2023-12-22T13:47:16;10.40;99.90
13980;DHT22;73871;49.900;8.594;2023-12-22T13:49:43;10.40;99.90
13980;DHT22;73871;49.900;8.594;2023-12-22T13:52:32;10.50;99.90
13980;DHT22;73871;49.900;8.594;2023-12-22T13:55:01;10.50;99.90
13980;DHT22;73871;49.900;8.594;2023-12-22T13:57:29;10.40;99.90
13980;DHT22;73871;49.900;8.594;2023-12-22T13:59:56;10.50;99.90
13980;DHT22;73871;49.900;8.594;2023-12-22T14:02:23;10.50;99.90
13980;DHT22;73871;49.900;8.594;2023-12-22T14:04:50;10.60;99.90
13980;DHT22;73871;49.900;8.594;2023-12-22T14:07:18;10.50;99.90
13980;DHT22;73871;49.900;8.594;2023-12-22T14:09:45;10.40;99.90
13980;DHT22;73871;49.900;8.594;2023-12-22T14:12:12;10.40;99.90
13980;DHT22;73871;49.900;8.594;2023-12-22T14:14:46;10.40;99.90
13980;DHT22;73871;49.900;8.594;2023-12-22T14:17:13;10.40;99.90
13980;DHT22;73871;49.900;8.594;2023-12-22T14:19:40;10.50;99.90
13980;DHT22;73871;49.900;8.594;2023-12-22T14:22:07;10.50;99.90
13980;DHT22;73871;49.900;8.594;2023-12-22T14:24:34;10.50;99.90
13980;DHT22;73871;49.900;8.594;2023-12-22T14:27:01;10.50;99.90
13980;DHT22;73871;49.900;8.594;2023-12-22T14:29:27;10.50;99.90
13980;DHT22;73871;49.900;8.594;2023-12-22T14:31:54;10.50;99.90
13980;DHT22;73871;49.900;8.594;2023-12-22T14:34:21;10.50;99.90
13980;DHT22;73871;49.900;8.594;2023-12-22T14:36:48;10.50;99.90
13980;DHT22;73871;49.900;8.594;2023-12-22T14:39:15;10.60;99.90
13980;DHT22;73871;49.900;8.594;2023-12-22T14:41:42;10.50;99.90
13980;DHT22;73871;49.900;8.594;2023-12-22T14:44:09;10.50;99.90
13980;DHT22;73871;49.900;8.594;2023-12-22T14:46:39;10.50;99.90
13980;DHT22;73871;49.900;8.594;2023-12-22T14:49:07;10.60;99.90
13980;DHT22;73871;49.900;8.594;2023-12-22T14:51:38;10.60;99.90
13980;DHT22;73871;49.900;8.594;2023-12-22T14:54:05;10.60;99.90
13980;DHT22;73871;49.900;8.594;2023-12-22T14:56:32;10.70;99.90
13980;DHT22;73871;49.900;8.594;2023-12-22T14:59:00;10.70;99.90
13980;DHT22;73871;49.900;8.594;2023-12-22T15:01:27;10.70;99.90
13980;DHT22;73871;49.900;8.594;2023-12-22T15:03:54;10.60;99.90
13980;DHT22;73871;49.900;8.594;2023-12-22T15:06:21;10.70;99.90
13980;DHT22;73871;49.900;8.594;2023-12-22T15:08:48;10.70;99.90
13980;DHT22;73871;49.900;8.594;2023-12-22T15:11:15;10.60;99.90
13980;DHT22;73871;49.900;8.594;2023-12-22T15:13:41;10.60;99.90
13980;DHT22;73871;49.900;8.594;2023-12-22T15:16:08;10.60;99.90
13980;DHT22;73871;49.900;8.594;2023-12-22T15:18:35;10.60;99.90
13980;DHT22;73871;49.900;8.594;2023-12-22T15:21:02;10.60;99.90
13980;DHT22;73871;49.900;8.594;2023-12-22T15:23:29;10.60;99.90
13980;DHT22;73871;49.900;8.594;2023-12-22T15:25:58;10.60;99.90
13980;DHT22;73871;49.900;8.594;2023-12-22T15:28:25;10.50;99.90
13980;DHT22;73871;49.900;8.594;2023-12-22T15:30:52;10.60;99.90
13980;DHT22;73871;49.900;8.594;2023-12-22T15:33:19;10.60;99.90
13980;DHT22;73871;49.900;8.594;2023-12-22T15:35:46;10.60;99.90
13980;DHT22;73871;49.900;8.594;2023-12-22T15:38:14;10.60;99.90
13980;DHT22;73871;49.900;8.594;2023-12-22T15:40:41;10.70;99.90
13980;DHT22;73871;49.900;8.594;2023-12-22T15:43:08;10.60;99.90
13980;DHT22;73871;49.900;8.594;2023-12-22T15:45:35;10.60;99.90
13980;DHT22;73871;49.900;8.594;2023-12-22T15:48:02;10.60;99.90
13980;DHT22;73871;49.900;8.594;2023-12-22T15:50:29;10.70;99.90
13980;DHT22;73871;49.900;8.594;2023-12-22T15:52:55;10.60;99.90
13980;DHT22;73871;49.900;8.594;2023-12-22T15:55:22;10.60;99.90